Latest Coastal Weather Observations for Minlaton Airport

IDS60701

Issued at 1:21 pm CDT Monday 27 March 2017 (issued every 10 minutes, with the page automatically refreshed every 10 minutes)

About coastal observations | Map of coastal stations | Coastal observations for SA | Marine services | Other Formats
Station Details ID: 022031 Name: MINLATON AERO Lat: -34.75 Lon: 137.53 Height: 32.0 m
Data from the previous 72 hours. | See also: Recent months at Minlaton Airport
Date/Time
CDT
Temp
°C
Wind Pressure Rain since
9am
mm
Weather Cloud Vis
km
Sea
Height
m
Swell
Dir  Spd
kts
Gust
kts
hPa Trend Height
m
Period
s
Dir
27/01:00pm 22.7 WSW 23 27 1015.2 - 0.0 - - - - - - -
27/12:30pm 22.5 W 18 26 1015.4 - 0.0 - - - - - - -
27/12:00pm 22.6 WSW 20 26 1015.2 - 0.0 - - - - - - -
27/11:30am 22.6 WSW 22 27 1015.4 - 0.0 - - - - - - -
27/11:00am 21.9 WSW 22 27 1014.8 - 0.0 - - - - - - -
27/10:30am 21.6 WSW 18 23 1014.5 - 0.0 - - - - - - -
27/10:00am 20.2 WSW 19 23 1014.4 - 0.0 - - - - - - -
27/09:30am 19.4 WSW 19 26 1013.8 - 0.0 - - - - - - -
27/09:00am 19.6 WSW 18 22 1013.3 - 0.0 - - - - - - -
27/08:30am 19.9 WSW 17 22 1013.0 - 0.0 - - - - - - -
27/08:00am 19.8 WSW 18 25 1012.3 - 0.0 - - - - - - -
27/07:30am 19.8 WSW 18 23 1011.3 - 0.0 - - - - - - -
27/07:00am 19.7 W 18 24 1010.3 - 0.0 - - - - - - -
27/06:30am 19.7 WSW 21 26 1009.6 - 0.0 - - - - - - -
27/06:00am 19.9 WSW 19 24 1008.9 - 0.0 - - - - - - -
27/05:30am 20.0 WSW 19 26 1008.7 - 0.0 - - - - - - -
27/05:00am 20.2 WSW 21 26 1008.1 - 0.0 - - - - - - -
27/04:30am 20.6 WSW 17 22 1008.0 - 0.0 - - - - - - -
27/04:00am 21.0 WSW 21 26 1007.1 - 0.0 - - - - - - -
27/03:30am 21.1 WSW 21 27 1006.5 - 0.0 - - - - - - -
27/03:00am 21.2 WSW 19 24 1006.7 - 0.0 - - - - - - -
27/02:30am 21.9 WSW 20 25 1005.6 - 0.0 - - - - - - -
27/02:00am 22.8 WSW 22 30 1004.9 - 0.0 - - - - - - -
27/01:41am 25.2 WNW 21 28 1004.2 - 0.0 - - - - - - -
27/01:36am 27.0 NW 18 28 1004.2 - 0.0 - - - - - - -
27/01:30am 28.4 NW 14 18 1003.9 - 0.0 - - - - - - -
27/01:00am 30.3 NE 17 21 1002.4 - 0.0 - - - - - - -
27/12:30am 30.5 NE 20 26 1002.2 - 0.0 - - - - - - -
27/12:00am 30.1 NE 23 29 1002.7 - 0.0 - - - - - - -
 
Date/Time
CDT
Temp
°C
Wind Pressure Rain since
9am
mm
Weather Cloud Vis
km
Sea
Height
m
Swell
Dir  Spd
kts
Gust
kts
hPa Trend Height
m
Period
s
Dir
26/11:30pm 30.0 NE 23 29 1003.1 - 0.0 - - - - - - -
26/11:00pm 30.1 NE 23 27 1003.7 - 0.0 - - - - - - -
26/10:30pm 29.6 ENE 19 23 1004.1 - 0.0 - - - - - - -
26/10:00pm 29.3 ENE 18 21 1004.4 - 0.0 - - - - - - -
26/09:30pm 29.5 ENE 18 20 1004.6 - 0.0 - - - - - - -
26/09:00pm 29.5 ENE 16 20 1004.9 - 0.0 - - - - - - -
26/08:30pm 29.3 ENE 16 19 1005.0 - 0.0 - - - - - - -
26/08:00pm 29.0 ENE 15 17 1005.1 - 0.0 - - - - - - -
26/07:30pm 29.7 ENE 14 17 1005.0 - 0.0 - - - - - - -
26/07:00pm 31.1 ENE 16 19 1005.1 - 0.0 - - - - - - -
26/06:30pm 32.0 ENE 18 22 1005.3 - 0.0 - - - - - - -
26/06:00pm 32.8 ENE 18 23 1005.4 - 0.0 - - - - - - -
26/05:30pm 33.4 ENE 17 21 1005.5 - 0.0 - - - - - - -
26/05:00pm 33.2 ENE 19 22 1005.6 - 0.0 - - - - - - -
26/04:30pm 34.1 E 17 21 1006.1 - 0.0 - - - - - - -
26/04:00pm 32.7 ESE 14 19 1006.8 - 0.0 - - - - - - -
26/03:30pm 32.4 E 11 14 1007.5 - 0.0 - - - - - - -
26/03:00pm 32.3 ESE 9 12 1008.3 - 0.0 - - - - - - -
26/02:30pm 31.9 ESE 12 14 1008.4 - 0.0 - - - - - - -
26/02:00pm 30.8 ESE 12 15 1009.3 - 0.0 - - - - - - -
26/01:30pm 29.6 ESE 11 13 1010.0 - 0.0 - - - - - - -
26/01:00pm 28.5 ESE 11 13 1010.6 - 0.0 - - - - - - -
26/12:30pm 28.9 ESE 11 13 1011.0 - 0.0 - - - - - - -
26/12:00pm 29.1 SSE 6 9 1011.5 - 0.0 - - - - - - -
26/11:30am 27.4 ESE 8 9 1011.6 - 0.0 - - - - - - -
26/11:00am 26.0 ESE 9 11 1011.9 - 0.0 - - - - - - -
26/10:30am 24.3 ESE 8 11 1012.0 - 0.0 - - - - - - -
26/10:00am 22.9 SE 8 10 1012.2 - 0.0 - - - - - - -
26/09:30am 21.7 SE 8 10 1012.2 - 0.0 - - - - - - -
26/09:00am 20.8 SSE 6 8 1012.2 - 0.0 - - - - - - -
26/08:30am 20.9 SSE 5 6 1011.8 - 0.0 - - - - - - -
26/08:00am 20.9 SSE 7 8 1011.4 - 0.0 - - - - - - -
26/07:30am 20.6 E 10 13 1011.0 - 0.0 - - - - - - -
26/07:00am 20.6 E 10 12 1011.0 - 0.0 - - - - - - -
26/06:30am 20.5 ENE 11 12 1010.6 - 0.0 - - - - - - -
26/06:00am 20.2 ENE 8 11 1010.6 - 0.0 - - - - - - -
26/05:30am 20.0 ENE 11 13 1010.4 - 0.0 - - - - - - -
26/05:00am 19.7 ENE 12 14 1010.4 - 0.0 - - - - - - -
26/04:30am 19.4 ENE 11 13 1011.2 - 0.0 - - - - - - -
26/04:00am 19.5 E 10 12 1011.7 - 0.0 - - - - - - -
26/03:30am 19.0 ESE 5 6 1012.2 - 0.0 - - - - - - -
26/03:00am 18.9 SE 3 4 1012.8 - 0.0 - - - - - - -
26/02:30am 19.0 SSE 4 6 1013.0 - 0.0 - - - - - - -
26/02:00am 19.1 SSE 6 7 1013.2 - 0.0 - - - - - - -
26/01:30am 19.1 SSE 6 7 1013.6 - 0.0 - - - - - - -
26/01:00am 18.7 SSE 6 7 1013.6 - 0.0 - - - - - - -
26/12:30am 18.6 SE 5 6 1013.9 - 0.0 - - - - - - -
26/12:00am 18.4 SSE 6 7 1013.9 - 0.0 - - - - - - -
 
Date/Time
CDT
Temp
°C
Wind Pressure Rain since
9am
mm
Weather Cloud Vis
km
Sea
Height
m
Swell
Dir  Spd
kts
Gust
kts
hPa Trend Height
m
Period
s
Dir
25/11:30pm 19.0 SSE 5 6 1014.1 - 0.0 - - - - - - -
25/11:00pm 19.0 SE 6 7 1014.2 - 0.0 - - - - - - -
25/10:30pm 19.2 SSE 6 7 1014.4 - 0.0 - - - - - - -
25/10:00pm 19.2 SSE 7 8 1014.5 - 0.0 - - - - - - -
25/09:30pm 19.7 SSE 5 7 1014.4 - 0.0 - - - - - - -
25/09:00pm 20.2 SE 6 7 1014.1 - 0.0 - - - - - - -
25/08:30pm 20.7 SE 9 10 1013.5 - 0.0 - - - - - - -
25/08:00pm 21.2 ESE 9 12 1013.0 - 0.0 - - - - - - -
25/07:30pm 21.6 SE 9 11 1013.1 - 0.0 - - - - - - -
25/07:00pm 22.3 ESE 9 11 1013.1 - 0.0 - - - - - - -
25/06:30pm 22.9 SE 11 15 1012.5 - 0.0 - - - - - - -
25/06:00pm 24.0 SE 11 14 1012.7 - 0.0 - - - - - - -
25/05:30pm 23.4 ESE 11 13 1012.5 - 0.0 - - - - - - -
25/05:00pm 24.4 ESE 11 14 1012.3 - 0.0 - - - - - - -
25/04:30pm 25.2 SE 9 12 1012.8 - 0.0 - - - - - - -
25/04:00pm 25.8 SE 7 9 1012.7 - 0.0 - - - - - - -
25/03:30pm 25.6 SSW 7 11 1012.9 - 0.0 - - - - - - -
25/03:00pm 26.4 S 8 11 1013.0 - 0.0 - - - - - - -
25/02:30pm 26.5 SSE 7 10 1013.2 - 0.0 - - - - - - -
25/02:00pm 26.9 S 9 13 1013.4 - 0.0 - - - - - - -
25/01:30pm 26.9 S 7 11 1013.7 - 0.0 - - - - - - -
25/01:00pm 25.4 S 9 13 1014.0 - 0.0 - - - - - - -
25/12:30pm 25.4 SSE 8 11 1013.8 - 0.0 - - - - - - -
25/12:00pm 24.9 S 9 13 1014.1 - 0.0 - - - - - - -
25/11:30am 24.4 SSE 7 9 1014.3 - 0.0 - - - - - - -
25/11:00am 24.0 SSE 7 10 1014.4 - 0.0 - - - - - - -
25/10:30am 23.8 SE 7 11 1014.3 - 0.0 - - - - - - -
25/10:00am 22.2 SSE 7 8 1013.9 - 0.0 - - - - - - -
25/09:30am 21.1 S 6 7 1013.8 - 0.0 - - - - - - -
25/09:00am 20.2 SSW 4 5 1013.4 - 0.0 - - - - - - -
25/08:30am 19.4 CALM 0 0 1013.2 - 0.0 - - - - - - -
25/08:00am 18.3 CALM 0 3 1012.7 - 0.0 - - - - - - -
25/07:30am 17.6 SSW 3 4 1012.5 - 0.0 - - - - - - -
25/07:00am 17.6 S 5 7 1012.2 - 0.0 - - - - - - -
25/06:30am 17.9 S 6 6 1012.0 - 0.0 - - - - - - -
25/06:00am 18.4 S 4 5 1011.6 - 0.0 - - - - - - -
25/05:30am 18.4 SSW 4 6 1011.3 - 0.0 - - - - - - -
25/05:00am 18.3 SSW 5 7 1011.2 - 0.0 - - - - - - -
25/04:30am 18.7 WSW 4 5 1011.0 - 0.0 - - - - - - -
25/04:00am 17.8 WNW 5 6 1010.8 - 0.0 - - - - - - -
25/03:30am 17.4 NNW 5 6 1010.8 - 0.0 - - - - - - -
25/03:00am 19.3 NE 5 7 1010.9 - 0.0 - - - - - - -
25/02:30am 19.5 ENE 6 7 1011.2 - 0.0 - - - - - - -
25/02:00am 19.6 ENE 8 10 1011.3 - 0.0 - - - - - - -
25/01:30am 19.4 SSW 2 6 1012.0 - 0.0 - - - - - - -
25/01:00am 20.4 SW 4 5 1012.3 - 0.0 - - - - - - -
25/12:30am 20.3 SSW 6 7 1012.4 - 0.0 - - - - - - -
25/12:00am 20.4 WSW 7 7 1012.6 - 0.0 - - - - - - -
 
Date/Time
CDT
Temp
°C
Wind Pressure Rain since
9am
mm
Weather Cloud Vis
km
Sea
Height
m
Swell
Dir  Spd
kts
Gust
kts
hPa Trend Height
m
Period
s
Dir
24/11:30pm 21.1 E 1 5 1012.2 - 0.0 - - - - - - -
24/11:00pm 21.9 E 4 6 1012.0 - 0.0 - - - - - - -
24/10:30pm 21.5 ESE 4 5 1012.3 - 0.0 - - - - - - -
24/10:00pm 21.9 ESE 4 4 1012.5 - 0.0 - - - - - - -
24/09:30pm 22.1 S 5 7 1012.5 - 0.0 - - - - - - -
24/09:00pm 22.3 S 7 8 1012.6 - 0.0 - - - - - - -
24/08:30pm 22.4 S 7 8 1012.5 - 0.0 - - - - - - -
24/08:00pm 23.4 S 6 7 1012.3 - 0.0 - - - - - - -
24/07:30pm 24.9 S 8 9 1012.2 - 0.0 - - - - - - -
24/07:00pm 26.2 S 10 13 1011.9 - 0.0 - - - - - - -
24/06:30pm 25.0 SW 7 10 1012.0 - 0.0 - - - - - - -
24/06:00pm 25.3 WSW 12 17 1011.9 - 0.0 - - - - - - -
24/05:30pm 28.4 W 10 12 1011.6 - 0.0 - - - - - - -
24/05:00pm 28.9 W 7 9 1011.6 - 0.0 - - - - - - -
24/04:30pm 28.5 W 8 10 1012.0 - 0.0 - - - - - - -
24/04:00pm 28.7 W 10 12 1012.0 - 0.0 - - - - - - -
24/03:30pm 28.9 W 8 10 1012.1 - 0.0 - - - - - - -
24/03:00pm 28.6 W 10 12 1012.2 - 0.0 - - - - - - -
24/02:30pm 30.5 WNW 10 13 1012.2 - 0.0 - - - - - - -
24/02:00pm 28.9 WNW 12 15 1012.6 - 0.0 - - - - - - -
24/01:30pm 30.6 WNW 12 15 1012.6 - 0.0 - - - - - - -

Other Formats:

Comma delimited format used in spreadsheet applications
http://www.bom.gov.au/fwo/IDS60701/IDS60701.95659.axf

JavaScript Object Notation format (JSON) in row-major order
http://www.bom.gov.au/fwo/IDS60701/IDS60701.95659.json